Time;durP1;ratioP1;P1;durP2;ratioP2;P2;SDS_P1;SDS_P2;PMS_P1;PMS_P2;Temp;Humidity;BMP_temperature;BMP_pressure;BME280_temperature;BME280_humidity;BME280_pressure;Samples;Min_cycle;Max_cycle;Signal;HPM_P1;HPM_P2
2021/05/14 00:00:37;;;;;;;;;;;18.10;50.10;;;;;;463055;256;1107;-46
2021/05/14 00:02:39;;;;;;;;;;;18.00;50.20;;;;;;462769;256;1136;-45
2021/05/14 00:04:40;;;;;;;;;;;18.00;50.30;;;;;;462993;257;1024;-46
2021/05/14 00:06:41;;;;;;;;;;;18.00;50.50;;;;;;463035;256;1098;-46
2021/05/14 00:08:43;;;;;;;;;;;17.90;50.60;;;;;;462984;254;1213;-46
2021/05/14 00:10:44;;;;;;;;;;;17.90;50.60;;;;;;463005;256;1072;-46
2021/05/14 00:12:48;;;;;;;;;;;17.90;50.80;;;;;;462884;257;1102;-46
2021/05/14 00:14:47;;;;;;;;;;;17.90;50.60;;;;;;463265;255;1796;-46
2021/05/14 00:16:48;;;;;;;;;;;17.90;50.50;;;;;;462910;255;2206;-46
2021/05/14 00:18:49;;;;;;;;;;;17.90;50.60;;;;;;462991;256;1100;-46
2021/05/14 00:20:51;;;;;;;;;;;17.90;50.60;;;;;;462957;255;1189;-46
2021/05/14 00:22:52;;;;;;;;;;;17.90;50.60;;;;;;462785;256;1304;-46
2021/05/14 00:24:53;;;;;;;;;;;17.90;50.50;;;;;;462975;254;1083;-46
2021/05/14 00:26:54;;;;;;;;;;;17.90;50.70;;;;;;462782;255;1182;-46
2021/05/14 00:28:56;;;;;;;;;;;17.90;50.60;;;;;;462960;257;1267;-45
2021/05/14 00:30:57;;;;;;;;;;;17.80;50.70;;;;;;462830;255;1156;-46
2021/05/14 00:32:58;;;;;;;;;;;17.80;50.80;;;;;;462878;255;1087;-46
2021/05/14 00:35:00;;;;;;;;;;;17.80;50.90;;;;;;462975;256;1083;-46
2021/05/14 00:37:01;;;;;;;;;;;17.80;50.80;;;;;;462938;254;2127;-46
2021/05/14 00:39:02;;;;;;;;;;;17.80;50.80;;;;;;462951;256;1223;-46
2021/05/14 00:41:03;;;;;;;;;;;17.80;50.80;;;;;;462889;256;1250;-46
2021/05/14 00:43:05;;;;;;;;;;;17.80;50.70;;;;;;462872;255;1067;-46
2021/05/14 00:45:06;;;;;;;;;;;17.80;50.80;;;;;;462882;256;1075;-46
2021/05/14 00:47:08;;;;;;;;;;;17.70;50.90;;;;;;462917;256;1252;-46
2021/05/14 00:49:08;;;;;;;;;;;17.70;50.90;;;;;;462877;255;1073;-46
2021/05/14 00:51:10;;;;;;;;;;;17.70;50.90;;;;;;462936;256;1247;-46
2021/05/14 00:53:11;;;;;;;;;;;17.70;50.80;;;;;;462914;256;1170;-46
2021/05/14 00:55:12;;;;;;;;;;;17.80;50.80;;;;;;462982;255;2187;-46
2021/05/14 00:57:15;;;;;;;;;;;17.70;50.90;;;;;;462836;255;1163;-46
2021/05/14 00:59:15;;;;;;;;;;;17.70;51.00;;;;;;462782;257;2211;-46
2021/05/14 01:01:16;;;;;;;;;;;17.60;50.90;;;;;;462830;256;1079;-46
2021/05/14 01:03:18;;;;;;;;;;;17.70;51.00;;;;;;462860;256;1119;-46
2021/05/14 01:05:19;;;;;;;;;;;17.60;51.00;;;;;;462986;255;1053;-46
2021/05/14 01:07:21;;;;;;;;;;;17.60;51.10;;;;;;462879;255;1063;-46
2021/05/14 01:09:22;;;;;;;;;;;17.60;51.10;;;;;;462900;256;1300;-46
2021/05/14 01:11:23;;;;;;;;;;;17.60;51.20;;;;;;463054;256;1087;-46
2021/05/14 01:13:25;;;;;;;;;;;17.50;51.20;;;;;;463126;255;1097;-46
2021/05/14 01:15:27;;;;;;;;;;;17.50;51.30;;;;;;463306;256;2160;-46
2021/05/14 01:17:30;;;;;;;;;;;17.60;51.10;;;;;;462869;256;1084;-46
2021/05/14 01:19:29;;;;;;;;;;;17.50;51.20;;;;;;462975;256;2306;-45
2021/05/14 01:21:30;;;;;;;;;;;17.50;51.10;;;;;;462948;256;1164;-46
2021/05/14 01:23:32;;;;;;;;;;;17.60;51.10;;;;;;463075;256;1298;-46
2021/05/14 01:25:33;;;;;;;;;;;17.60;50.90;;;;;;462980;256;1179;-46
2021/05/14 01:27:34;;;;;;;;;;;17.60;50.90;;;;;;462820;256;1468;-46
2021/05/14 01:29:35;;;;;;;;;;;17.60;51.00;;;;;;463122;256;1189;-46
2021/05/14 01:31:37;;;;;;;;;;;17.60;51.00;;;;;;462926;255;1155;-46
2021/05/14 01:33:38;;;;;;;;;;;17.60;50.90;;;;;;463177;256;1070;-46
2021/05/14 01:35:40;;;;;;;;;;;17.60;51.00;;;;;;462902;256;2211;-46
2021/05/14 01:37:40;;;;;;;;;;;17.60;51.00;;;;;;462912;255;1364;-46
2021/05/14 01:39:42;;;;;;;;;;;17.50;51.00;;;;;;462966;256;1206;-46
2021/05/14 01:41:43;;;;;;;;;;;17.60;51.00;;;;;;463250;254;1347;-46
2021/05/14 01:43:44;;;;;;;;;;;17.50;51.00;;;;;;462918;256;1214;-46
2021/05/14 01:45:46;;;;;;;;;;;17.50;51.20;;;;;;462832;255;1183;-46
2021/05/14 01:47:47;;;;;;;;;;;17.50;51.10;;;;;;462944;256;1541;-46
2021/05/14 01:49:48;;;;;;;;;;;17.50;51.10;;;;;;462796;256;1103;-46
2021/05/14 01:51:50;;;;;;;;;;;17.60;51.10;;;;;;462909;255;1377;-46
2021/05/14 01:53:51;;;;;;;;;;;17.90;50.30;;;;;;462910;257;1345;-46
2021/05/14 01:55:52;;;;;;;;;;;18.30;49.20;;;;;;462898;256;2195;-46
2021/05/14 01:57:53;;;;;;;;;;;18.60;48.40;;;;;;462849;257;1177;-46
2021/05/14 01:59:55;;;;;;;;;;;18.80;47.80;;;;;;462937;256;1092;-46
2021/05/14 02:01:56;;;;;;;;;;;18.90;47.40;;;;;;462869;256;1151;-46
2021/05/14 02:03:57;;;;;;;;;;;19.10;47.00;;;;;;463081;256;1143;-46
2021/05/14 02:05:58;;;;;;;;;;;19.20;46.70;;;;;;463157;256;1088;-46
2021/05/14 02:08:00;;;;;;;;;;;19.30;46.50;;;;;;462891;256;1135;-46
2021/05/14 02:10:01;;;;;;;;;;;19.30;46.40;;;;;;462924;256;1198;-46
2021/05/14 02:12:02;;;;;;;;;;;19.40;46.20;;;;;;462855;256;1137;-46
2021/05/14 02:14:03;;;;;;;;;;;19.50;46.10;;;;;;462909;255;1080;-46
2021/05/14 02:16:05;;;;;;;;;;;19.50;46.00;;;;;;462859;256;2203;-46
2021/05/14 02:18:06;;;;;;;;;;;19.60;45.90;;;;;;463006;256;1405;-46
2021/05/14 02:20:07;;;;;;;;;;;19.60;45.70;;;;;;462949;256;1303;-46
2021/05/14 02:22:09;;;;;;;;;;;19.70;45.70;;;;;;463169;256;1108;-46
2021/05/14 02:24:10;;;;;;;;;;;19.70;45.50;;;;;;463181;256;1288;-46
2021/05/14 02:26:11;;;;;;;;;;;19.80;45.40;;;;;;462922;256;1382;-46
2021/05/14 02:28:13;;;;;;;;;;;19.80;45.40;;;;;;462888;255;1173;-46
2021/05/14 02:30:14;;;;;;;;;;;19.80;45.40;;;;;;463116;256;1078;-46
2021/05/14 02:32:15;;;;;;;;;;;19.80;45.40;;;;;;462838;257;1062;-46
2021/05/14 02:34:16;;;;;;;;;;;19.80;45.30;;;;;;463074;256;1042;-46
2021/05/14 02:36:18;;;;;;;;;;;19.90;45.30;;;;;;462778;256;2169;-46
2021/05/14 02:38:19;;;;;;;;;;;19.90;45.20;;;;;;462861;256;1249;-46
2021/05/14 02:40:20;;;;;;;;;;;19.90;45.10;;;;;;462969;256;1315;-46
2021/05/14 02:42:21;;;;;;;;;;;20.00;45.10;;;;;;462848;256;1546;-46
2021/05/14 02:44:23;;;;;;;;;;;20.00;45.10;;;;;;462995;256;1086;-46
2021/05/14 02:46:24;;;;;;;;;;;20.00;45.00;;;;;;462850;255;1183;-46
2021/05/14 02:48:25;;;;;;;;;;;20.00;45.00;;;;;;463048;255;1078;-46
2021/05/14 02:50:26;;;;;;;;;;;20.00;44.90;;;;;;463012;256;1178;-46
2021/05/14 02:52:28;;;;;;;;;;;20.00;44.90;;;;;;463242;256;1212;-46
2021/05/14 02:54:29;;;;;;;;;;;20.10;44.80;;;;;;463286;255;1187;-46
2021/05/14 02:56:30;;;;;;;;;;;20.10;44.90;;;;;;463006;256;2155;-46
2021/05/14 02:58:32;;;;;;;;;;;20.20;44.80;;;;;;463375;257;1223;-46
2021/05/14 03:00:33;;;;;;;;;;;20.20;44.70;;;;;;463018;256;1108;-46
2021/05/14 03:02:34;;;;;;;;;;;20.10;44.70;;;;;;462790;256;1233;-46
2021/05/14 03:04:36;;;;;;;;;;;20.10;44.70;;;;;;462863;255;1472;-46
2021/05/14 03:06:37;;;;;;;;;;;20.20;44.60;;;;;;462753;255;1391;-45
2021/05/14 03:08:38;;;;;;;;;;;20.20;44.70;;;;;;463056;256;1126;-46
2021/05/14 03:10:39;;;;;;;;;;;20.20;44.60;;;;;;462876;256;1256;-46
2021/05/14 03:12:41;;;;;;;;;;;20.20;44.60;;;;;;462967;255;1207;-46
2021/05/14 03:14:42;;;;;;;;;;;20.30;44.60;;;;;;463033;257;1053;-46
2021/05/14 03:16:43;;;;;;;;;;;20.30;44.50;;;;;;463059;257;2143;-46
2021/05/14 03:18:44;;;;;;;;;;;20.30;44.50;;;;;;463171;256;1088;-46
2021/05/14 03:20:46;;;;;;;;;;;20.30;44.50;;;;;;463285;256;1136;-46
2021/05/14 03:22:47;;;;;;;;;;;20.30;44.50;;;;;;463297;256;1188;-46
2021/05/14 03:24:48;;;;;;;;;;;20.40;44.50;;;;;;462992;256;1177;-46
2021/05/14 03:26:53;;;;;;;;;;;20.40;44.60;;;;;;462915;256;1496;-46
2021/05/14 03:28:51;;;;;;;;;;;20.40;44.50;;;;;;462809;255;1877;-46
2021/05/14 03:30:52;;;;;;;;;;;20.40;44.50;;;;;;462870;256;1117;-46
2021/05/14 03:32:53;;;;;;;;;;;20.40;44.50;;;;;;462833;256;1109;-46
2021/05/14 03:34:55;;;;;;;;;;;20.40;44.40;;;;;;463130;255;1084;-46
2021/05/14 03:36:56;;;;;;;;;;;20.40;44.50;;;;;;463202;255;2203;-46
2021/05/14 03:38:58;;;;;;;;;;;20.40;44.30;;;;;;463004;256;1076;-46
2021/05/14 03:41:00;;;;;;;;;;;20.40;44.30;;;;;;463020;256;1229;-46
2021/05/14 03:43:01;;;;;;;;;;;20.50;44.30;;;;;;462838;256;2078;-46
2021/05/14 03:45:02;;;;;;;;;;;20.50;44.20;;;;;;463132;256;1119;-46
2021/05/14 03:47:04;;;;;;;;;;;20.50;44.20;;;;;;463002;256;1216;-46
2021/05/14 03:49:05;;;;;;;;;;;20.50;44.20;;;;;;463078;256;1131;-46
2021/05/14 03:51:06;;;;;;;;;;;20.60;44.20;;;;;;462966;256;1266;-46
2021/05/14 03:53:08;;;;;;;;;;;20.60;44.30;;;;;;462963;256;1177;-46
2021/05/14 03:55:09;;;;;;;;;;;20.60;44.20;;;;;;462909;256;1246;-46
2021/05/14 03:57:10;;;;;;;;;;;20.60;44.20;;;;;;462798;255;2210;-46
2021/05/14 03:59:11;;;;;;;;;;;20.60;44.20;;;;;;463003;256;1075;-46
2021/05/14 04:01:13;;;;;;;;;;;20.70;44.00;;;;;;462843;255;1375;-46
2021/05/14 04:03:15;;;;;;;;;;;20.40;44.50;;;;;;462903;256;1212;-46
2021/05/14 04:05:16;;;;;;;;;;;19.90;45.70;;;;;;463273;255;2132;-46
2021/05/14 04:07:18;;;;;;;;;;;19.40;46.70;;;;;;462872;256;1235;-46
2021/05/14 04:09:20;;;;;;;;;;;19.10;47.50;;;;;;463025;255;2487;-46
2021/05/14 04:16:05;;;;;;;;;;;18.70;48.80;;;;;;462870;257;1321;-46
2021/05/14 04:18:07;;;;;;;;;;;18.60;49.00;;;;;;462918;255;2131;-46
2021/05/14 04:20:08;;;;;;;;;;;18.50;49.20;;;;;;463029;256;1071;-46
2021/05/14 04:22:09;;;;;;;;;;;18.40;49.40;;;;;;462793;256;1189;-45
2021/05/14 04:24:11;;;;;;;;;;;18.40;49.60;;;;;;462854;256;1137;-46
2021/05/14 04:26:12;;;;;;;;;;;18.30;49.70;;;;;;462799;258;1187;-46
2021/05/14 04:28:13;;;;;;;;;;;18.20;49.90;;;;;;463114;255;1218;-45
2021/05/14 04:30:15;;;;;;;;;;;18.20;50.10;;;;;;463124;256;1120;-46
2021/05/14 04:32:16;;;;;;;;;;;18.20;50.00;;;;;;462797;256;1354;-45
2021/05/14 04:34:17;;;;;;;;;;;18.10;50.10;;;;;;462913;256;1036;-46
2021/05/14 04:36:18;;;;;;;;;;;18.10;50.30;;;;;;462881;256;1139;-46
2021/05/14 04:38:20;;;;;;;;;;;18.10;50.30;;;;;;462820;255;2191;-46
2021/05/14 04:40:21;;;;;;;;;;;18.10;50.40;;;;;;462946;257;1088;-46
2021/05/14 04:42:22;;;;;;;;;;;18.00;50.40;;;;;;462882;256;1287;-45
2021/05/14 04:44:24;;;;;;;;;;;18.00;50.50;;;;;;462953;256;1089;-46
2021/05/14 04:46:25;;;;;;;;;;;18.00;50.50;;;;;;463002;255;1045;-46
2021/05/14 04:48:26;;;;;;;;;;;18.00;50.60;;;;;;462802;256;1282;-46
2021/05/14 04:50:27;;;;;;;;;;;18.00;50.60;;;;;;463052;254;1081;-46
2021/05/14 04:52:30;;;;;;;;;;;17.90;50.60;;;;;;462754;256;1380;-46
2021/05/14 04:54:30;;;;;;;;;;;18.00;50.60;;;;;;462859;255;2041;-46
2021/05/14 04:56:31;;;;;;;;;;;18.00;50.50;;;;;;462880;256;2183;-45
2021/05/14 04:58:32;;;;;;;;;;;17.90;50.60;;;;;;462983;256;1046;-46
2021/05/14 05:00:34;;;;;;;;;;;17.90;50.70;;;;;;462904;256;1069;-46
2021/05/14 05:02:35;;;;;;;;;;;17.80;50.80;;;;;;462971;256;1273;-46
2021/05/14 05:04:36;;;;;;;;;;;17.80;50.80;;;;;;462951;256;1041;-46
2021/05/14 05:06:40;;;;;;;;;;;17.80;50.80;;;;;;462921;256;1532;-46
2021/05/14 05:08:39;;;;;;;;;;;17.80;51.00;;;;;;462769;256;2129;-46
2021/05/14 05:10:40;;;;;;;;;;;17.80;51.00;;;;;;463123;255;1283;-45
2021/05/14 05:12:41;;;;;;;;;;;17.80;50.90;;;;;;462873;256;1158;-46
2021/05/14 05:14:43;;;;;;;;;;;17.90;50.80;;;;;;463048;256;1074;-46
2021/05/14 05:16:44;;;;;;;;;;;17.90;50.60;;;;;;462764;256;2198;-46
2021/05/14 05:18:45;;;;;;;;;;;17.80;50.70;;;;;;462867;256;1276;-46
2021/05/14 05:20:47;;;;;;;;;;;17.90;50.60;;;;;;463141;254;1048;-46
2021/05/14 05:22:48;;;;;;;;;;;17.80;50.70;;;;;;462972;256;1155;-46
2021/05/14 05:24:50;;;;;;;;;;;17.90;50.70;;;;;;463005;255;1127;-46
2021/05/14 05:26:51;;;;;;;;;;;17.80;50.90;;;;;;462907;254;1262;-46
2021/05/14 05:28:52;;;;;;;;;;;17.80;50.80;;;;;;462991;255;1061;-46
2021/05/14 05:30:53;;;;;;;;;;;17.80;50.80;;;;;;463110;255;1246;-46
2021/05/14 05:32:55;;;;;;;;;;;17.70;50.80;;;;;;462808;255;1287;-46
2021/05/14 05:34:57;;;;;;;;;;;17.70;50.90;;;;;;463082;255;1130;-46
2021/05/14 05:36:58;;;;;;;;;;;17.70;51.00;;;;;;462873;256;2160;-46
2021/05/14 05:38:59;;;;;;;;;;;17.70;50.90;;;;;;462805;256;1102;-46
2021/05/14 05:41:00;;;;;;;;;;;17.70;51.00;;;;;;462886;256;1569;-46
2021/05/14 05:43:02;;;;;;;;;;;17.60;51.10;;;;;;462756;255;1212;-46
2021/05/14 05:45:03;;;;;;;;;;;17.70;51.10;;;;;;462796;256;1100;-46
2021/05/14 05:47:04;;;;;;;;;;;17.70;51.00;;;;;;462729;256;1239;-45
2021/05/14 05:49:06;;;;;;;;;;;17.60;51.10;;;;;;462819;256;1064;-45
2021/05/14 05:51:09;;;;;;;;;;;17.60;51.10;;;;;;462925;256;1161;-45
2021/05/14 05:53:08;;;;;;;;;;;17.60;51.10;;;;;;462713;256;1908;-46
2021/05/14 05:55:09;;;;;;;;;;;17.70;51.00;;;;;;462751;255;1143;-46
2021/05/14 05:57:11;;;;;;;;;;;17.60;51.00;;;;;;462663;256;2199;-46
2021/05/14 05:59:16;;;;;;;;;;;17.60;51.00;;;;;;462813;256;1137;-46
2021/05/14 06:01:14;;;;;;;;;;;17.60;51.10;;;;;;462553;256;1426;-46
2021/05/14 06:03:15;;;;;;;;;;;17.60;51.10;;;;;;462651;256;1187;-46
2021/05/14 06:05:16;;;;;;;;;;;17.60;51.10;;;;;;462732;255;1188;-46
2021/05/14 06:07:17;;;;;;;;;;;17.60;51.10;;;;;;462668;256;1195;-45
2021/05/14 06:09:19;;;;;;;;;;;17.60;51.10;;;;;;462657;256;1248;-45
2021/05/14 06:11:20;;;;;;;;;;;17.50;51.20;;;;;;462921;256;1671;-46
2021/05/14 06:13:21;;;;;;;;;;;17.50;51.20;;;;;;462732;256;1349;-46
2021/05/14 06:15:23;;;;;;;;;;;17.60;51.10;;;;;;462649;256;1277;-46
2021/05/14 06:17:24;;;;;;;;;;;17.50;51.20;;;;;;462656;255;2152;-46
2021/05/14 06:19:28;;;;;;;;;;;17.50;51.30;;;;;;462727;256;1136;-46
2021/05/14 06:21:26;;;;;;;;;;;17.50;51.40;;;;;;462620;255;2200;-46
2021/05/14 06:23:28;;;;;;;;;;;17.50;51.30;;;;;;462780;255;1077;-46
2021/05/14 06:25:29;;;;;;;;;;;17.50;51.30;;;;;;462857;256;1092;-46
2021/05/14 06:27:30;;;;;;;;;;;17.50;51.30;;;;;;462786;256;1312;-46
2021/05/14 06:29:32;;;;;;;;;;;17.50;51.30;;;;;;462808;256;1073;-46
2021/05/14 06:31:33;;;;;;;;;;;17.50;51.40;;;;;;462812;256;1112;-46
2021/05/14 06:33:34;;;;;;;;;;;17.40;51.30;;;;;;462643;255;1105;-46
2021/05/14 06:35:36;;;;;;;;;;;17.40;51.40;;;;;;462679;256;1200;-46
2021/05/14 06:37:37;;;;;;;;;;;17.50;51.40;;;;;;462692;255;2215;-46
2021/05/14 06:39:38;;;;;;;;;;;17.50;51.10;;;;;;462679;257;1088;-46
2021/05/14 06:41:39;;;;;;;;;;;17.50;51.10;;;;;;462666;255;1305;-46
2021/05/14 06:43:41;;;;;;;;;;;17.70;50.60;;;;;;462702;255;1180;-46
2021/05/14 06:45:42;;;;;;;;;;;18.20;49.50;;;;;;462700;255;1170;-46
2021/05/14 06:47:43;;;;;;;;;;;18.50;48.60;;;;;;462800;257;1273;-46
2021/05/14 06:49:46;;;;;;;;;;;18.70;48.10;;;;;;462715;255;1072;-46
2021/05/14 06:51:46;;;;;;;;;;;18.90;47.70;;;;;;462777;256;1972;-46
2021/05/14 06:53:49;;;;;;;;;;;19.00;47.20;;;;;;463028;256;1070;-46
2021/05/14 06:55:48;;;;;;;;;;;19.10;46.90;;;;;;462770;255;1354;-46
2021/05/14 06:57:50;;;;;;;;;;;19.20;46.70;;;;;;462809;256;2199;-46
2021/05/14 06:59:52;;;;;;;;;;;19.30;46.60;;;;;;462959;256;1124;-46
2021/05/14 07:01:54;;;;;;;;;;;19.30;46.40;;;;;;462784;256;1480;-46
2021/05/14 07:03:55;;;;;;;;;;;19.40;46.20;;;;;;462781;256;1137;-46
2021/05/14 07:05:56;;;;;;;;;;;19.50;46.10;;;;;;462692;256;1413;-46
2021/05/14 07:07:57;;;;;;;;;;;19.50;46.00;;;;;;462625;255;1336;-46
2021/05/14 07:09:59;;;;;;;;;;;19.60;45.90;;;;;;462727;257;1089;-46
2021/05/14 07:12:00;;;;;;;;;;;19.60;45.90;;;;;;462615;256;1192;-46
2021/05/14 07:14:01;;;;;;;;;;;19.60;45.70;;;;;;462726;256;1194;-46
2021/05/14 07:16:03;;;;;;;;;;;19.70;45.70;;;;;;462708;256;1432;-46
2021/05/14 07:18:04;;;;;;;;;;;19.70;45.60;;;;;;462763;257;2148;-46
2021/05/14 07:20:05;;;;;;;;;;;19.70;45.50;;;;;;462664;255;1117;-46
2021/05/14 07:22:06;;;;;;;;;;;19.80;45.40;;;;;;462511;256;1313;-46
2021/05/14 07:24:08;;;;;;;;;;;19.80;45.40;;;;;;462657;256;1094;-46
2021/05/14 07:26:09;;;;;;;;;;;19.80;45.40;;;;;;462936;256;1293;-46
2021/05/14 07:28:10;;;;;;;;;;;19.90;45.30;;;;;;462856;255;1204;-46
2021/05/14 07:30:12;;;;;;;;;;;19.90;45.30;;;;;;462641;256;1158;-46
2021/05/14 07:32:13;;;;;;;;;;;19.90;45.20;;;;;;462622;255;1646;-46
2021/05/14 07:34:14;;;;;;;;;;;19.90;45.20;;;;;;462638;257;1064;-46
2021/05/14 07:36:15;;;;;;;;;;;20.00;45.20;;;;;;462649;256;1305;-46
2021/05/14 07:38:17;;;;;;;;;;;20.00;45.10;;;;;;462715;256;2187;-46
2021/05/14 07:40:18;;;;;;;;;;;20.00;45.00;;;;;;462747;256;1195;-46
2021/05/14 07:42:19;;;;;;;;;;;20.00;44.90;;;;;;462911;255;1281;-46
2021/05/14 07:44:21;;;;;;;;;;;20.00;44.90;;;;;;462782;256;1202;-46
2021/05/14 07:46:22;;;;;;;;;;;20.00;44.90;;;;;;462869;256;1592;-46
2021/05/14 07:48:24;;;;;;;;;;;20.10;44.90;;;;;;462723;254;1166;-46
2021/05/14 07:50:26;;;;;;;;;;;20.10;44.80;;;;;;462765;256;1130;-46
2021/05/14 07:52:27;;;;;;;;;;;20.10;44.80;;;;;;462663;256;1860;-46
2021/05/14 07:54:29;;;;;;;;;;;20.20;44.80;;;;;;462678;256;1157;-46
2021/05/14 07:56:29;;;;;;;;;;;20.20;44.80;;;;;;462638;256;1950;-46
2021/05/14 07:58:30;;;;;;;;;;;20.20;44.70;;;;;;462682;256;2207;-46
2021/05/14 08:00:32;;;;;;;;;;;20.20;44.70;;;;;;462639;255;1249;-46
2021/05/14 08:02:33;;;;;;;;;;;20.20;44.70;;;;;;462731;255;1144;-46
2021/05/14 08:04:34;;;;;;;;;;;20.20;44.60;;;;;;462820;255;1112;-46
2021/05/14 08:06:36;;;;;;;;;;;20.30;44.60;;;;;;462767;256;1140;-46
2021/05/14 08:08:39;;;;;;;;;;;20.30;44.60;;;;;;462735;256;1254;-46
2021/05/14 08:10:38;;;;;;;;;;;20.30;44.50;;;;;;462722;255;2028;-46
2021/05/14 08:12:39;;;;;;;;;;;20.30;44.50;;;;;;462839;256;1278;-46
2021/05/14 08:14:41;;;;;;;;;;;20.40;44.50;;;;;;462730;256;1215;-46
2021/05/14 08:16:42;;;;;;;;;;;20.40;44.40;;;;;;462901;256;1094;-46
2021/05/14 08:18:43;;;;;;;;;;;20.40;44.40;;;;;;462905;256;2211;-46
2021/05/14 08:20:45;;;;;;;;;;;20.40;44.40;;;;;;462811;256;1154;-46
2021/05/14 08:22:46;;;;;;;;;;;20.40;44.40;;;;;;462914;255;1227;-46
2021/05/14 08:24:47;;;;;;;;;;;20.40;44.30;;;;;;462987;255;1104;-46
2021/05/14 08:26:48;;;;;;;;;;;20.40;44.30;;;;;;462822;257;1688;-46
2021/05/14 08:28:50;;;;;;;;;;;20.50;44.30;;;;;;462622;256;1187;-46
2021/05/14 08:30:51;;;;;;;;;;;20.50;44.20;;;;;;462618;257;1126;-46
2021/05/14 08:32:52;;;;;;;;;;;20.50;44.30;;;;;;462768;256;1239;-46
2021/05/14 08:34:54;;;;;;;;;;;20.50;44.30;;;;;;462855;256;1044;-46
2021/05/14 08:36:55;;;;;;;;;;;20.50;44.30;;;;;;462721;256;1278;-46
2021/05/14 08:38:56;;;;;;;;;;;20.50;44.20;;;;;;462805;255;2135;-46
2021/05/14 08:40:57;;;;;;;;;;;20.50;44.20;;;;;;462628;256;1157;-46
2021/05/14 08:42:59;;;;;;;;;;;20.50;44.20;;;;;;462796;256;1222;-46
2021/05/14 08:45:00;;;;;;;;;;;20.60;44.20;;;;;;462929;255;1186;-46
2021/05/14 08:47:01;;;;;;;;;;;20.60;44.20;;;;;;462673;256;1525;-46
2021/05/14 08:49:03;;;;;;;;;;;20.60;44.20;;;;;;462662;256;1097;-46
2021/05/14 08:51:04;;;;;;;;;;;20.60;44.20;;;;;;462732;256;1150;-46
2021/05/14 08:53:05;;;;;;;;;;;20.60;44.20;;;;;;462704;256;1174;-46
2021/05/14 08:55:07;;;;;;;;;;;20.60;44.10;;;;;;462696;256;1201;-46
2021/05/14 08:57:08;;;;;;;;;;;20.60;44.10;;;;;;462652;256;1229;-46
2021/05/14 08:59:09;;;;;;;;;;;20.60;44.10;;;;;;462728;256;2196;-46
2021/05/14 09:01:11;;;;;;;;;;;20.60;44.20;;;;;;462753;255;1246;-46
2021/05/14 09:03:12;;;;;;;;;;;20.70;44.00;;;;;;462746;256;1245;-46
2021/05/14 09:05:13;;;;;;;;;;;20.50;44.30;;;;;;462660;256;1235;-46
2021/05/14 09:07:15;;;;;;;;;;;20.00;45.30;;;;;;462808;256;1511;-45
2021/05/14 09:09:16;;;;;;;;;;;19.60;46.50;;;;;;462612;257;2385;-46
2021/05/14 09:11:17;;;;;;;;;;;19.30;47.30;;;;;;462698;255;1712;-46
2021/05/14 09:13:18;;;;;;;;;;;19.00;47.90;;;;;;462746;254;1137;-46
2021/05/14 09:15:20;;;;;;;;;;;18.90;48.30;;;;;;462684;256;1143;-46
2021/05/14 09:17:23;;;;;;;;;;;18.70;48.60;;;;;;462651;256;1236;-46
2021/05/14 09:19:23;;;;;;;;;;;18.60;48.90;;;;;;462768;257;2190;-45
2021/05/14 09:21:24;;;;;;;;;;;18.60;49.30;;;;;;462580;256;1273;-46
2021/05/14 09:23:25;;;;;;;;;;;18.50;49.40;;;;;;462758;256;1147;-46
2021/05/14 09:25:26;;;;;;;;;;;18.40;49.50;;;;;;463000;256;1144;-46
2021/05/14 09:27:28;;;;;;;;;;;18.40;49.70;;;;;;462778;255;1256;-46
2021/05/14 09:29:29;;;;;;;;;;;18.30;49.80;;;;;;463025;255;1190;-46
2021/05/14 09:31:30;;;;;;;;;;;18.30;49.70;;;;;;463004;255;1116;-46
2021/05/14 09:33:32;;;;;;;;;;;18.30;49.80;;;;;;462799;255;1167;-46
2021/05/14 09:35:33;;;;;;;;;;;18.30;50.00;;;;;;462841;255;1112;-46
2021/05/14 09:37:34;;;;;;;;;;;18.20;50.00;;;;;;462984;257;1077;-46
2021/05/14 09:39:35;;;;;;;;;;;18.20;50.00;;;;;;462693;256;2190;-46
2021/05/14 09:41:37;;;;;;;;;;;18.20;50.10;;;;;;462744;256;1197;-46
2021/05/14 09:43:38;;;;;;;;;;;18.20;50.10;;;;;;462707;255;1467;-46
2021/05/14 09:45:41;;;;;;;;;;;18.10;50.40;;;;;;462705;256;1236;-46
2021/05/14 09:47:42;;;;;;;;;;;18.00;50.50;;;;;;462651;256;1242;-46
2021/05/14 09:49:44;;;;;;;;;;;18.00;50.50;;;;;;462609;257;1186;-46
2021/05/14 09:51:45;;;;;;;;;;;18.00;50.50;;;;;;462741;256;1100;-46
2021/05/14 09:53:46;;;;;;;;;;;18.00;50.40;;;;;;462907;256;1132;-46
2021/05/14 09:55:49;;;;;;;;;;;18.00;50.50;;;;;;462716;256;1133;-46
2021/05/14 09:57:52;;;;;;;;;;;18.00;50.60;;;;;;462575;256;2539;-46
2021/05/14 09:59:50;;;;;;;;;;;17.90;50.60;;;;;;462661;254;2544;-46
2021/05/14 10:01:52;;;;;;;;;;;17.90;50.70;;;;;;462656;256;1230;-46
2021/05/14 10:03:53;;;;;;;;;;;17.90;50.70;;;;;;463048;255;1130;-46
2021/05/14 10:05:54;;;;;;;;;;;17.90;50.70;;;;;;462800;256;1352;-46
2021/05/14 10:07:56;;;;;;;;;;;17.90;50.70;;;;;;462815;256;1162;-46
2021/05/14 10:09:59;;;;;;;;;;;17.90;50.80;;;;;;462724;255;1108;-46
2021/05/14 10:11:58;;;;;;;;;;;17.90;50.70;;;;;;462487;256;1789;-46
2021/05/14 10:13:59;;;;;;;;;;;17.80;50.80;;;;;;462733;257;1261;-46
2021/05/14 10:16:03;;;;;;;;;;;17.80;50.80;;;;;;462712;255;1206;-46
2021/05/14 10:18:06;;;;;;;;;;;17.90;50.80;;;;;;462732;255;1589;-46
2021/05/14 10:20:05;;;;;;;;;;;17.90;50.70;;;;;;462937;254;2546;-46
2021/05/14 10:22:06;;;;;;;;;;;17.80;50.90;;;;;;462807;256;1345;-46
2021/05/14 10:24:07;;;;;;;;;;;17.80;50.90;;;;;;462821;256;1127;-46
2021/05/14 10:26:09;;;;;;;;;;;17.70;51.00;;;;;;462783;256;1450;-45
2021/05/14 10:28:10;;;;;;;;;;;17.70;51.00;;;;;;462930;255;1524;-46
2021/05/14 10:30:11;;;;;;;;;;;17.80;50.90;;;;;;463011;256;1191;-46
2021/05/14 10:32:12;;;;;;;;;;;17.80;50.80;;;;;;462715;256;1404;-46
2021/05/14 10:34:14;;;;;;;;;;;17.80;50.80;;;;;;462755;256;1072;-46
2021/05/14 10:36:15;;;;;;;;;;;17.70;50.90;;;;;;462655;256;1526;-46
2021/05/14 10:38:16;;;;;;;;;;;17.70;51.10;;;;;;462725;255;1169;-46
2021/05/14 10:40:18;;;;;;;;;;;17.70;51.00;;;;;;462779;255;2162;-46
2021/05/14 10:42:20;;;;;;;;;;;17.70;51.00;;;;;;462743;256;1224;-46
2021/05/14 10:44:20;;;;;;;;;;;17.70;51.10;;;;;;462922;255;1866;-46
2021/05/14 10:46:22;;;;;;;;;;;17.70;50.90;;;;;;462859;256;1618;-46
2021/05/14 10:48:24;;;;;;;;;;;17.70;50.90;;;;;;462907;256;1090;-46
2021/05/14 10:50:24;;;;;;;;;;;17.70;51.00;;;;;;462783;256;2582;-45
2021/05/14 10:52:27;;;;;;;;;;;17.70;51.00;;;;;;462862;256;1169;-46
2021/05/14 10:54:27;;;;;;;;;;;17.60;51.00;;;;;;462713;257;2104;-46
2021/05/14 10:56:28;;;;;;;;;;;17.70;51.00;;;;;;462758;256;1408;-46
2021/05/14 10:58:30;;;;;;;;;;;17.70;51.10;;;;;;462852;256;1084;-45
2021/05/14 11:00:32;;;;;;;;;;;17.60;51.20;;;;;;462801;255;2199;-46
2021/05/14 11:02:33;;;;;;;;;;;17.60;51.30;;;;;;462672;256;1590;-46
2021/05/14 11:04:34;;;;;;;;;;;17.60;51.10;;;;;;462809;256;1086;-46
2021/05/14 11:06:35;;;;;;;;;;;17.60;51.10;;;;;;462664;256;1074;-46
2021/05/14 11:08:37;;;;;;;;;;;17.60;51.10;;;;;;462690;256;1133;-46
2021/05/14 11:10:38;;;;;;;;;;;17.60;51.00;;;;;;462634;256;1532;-46
2021/05/14 11:12:39;;;;;;;;;;;17.60;51.00;;;;;;462823;255;1314;-46
2021/05/14 11:14:41;;;;;;;;;;;17.60;51.10;;;;;;462885;256;1172;-46
2021/05/14 11:16:43;;;;;;;;;;;17.60;51.10;;;;;;462736;256;1580;-46
2021/05/14 11:18:44;;;;;;;;;;;17.60;51.00;;;;;;462925;256;2156;-46
2021/05/14 11:20:45;;;;;;;;;;;17.60;51.10;;;;;;463051;256;1233;-45
2021/05/14 11:22:46;;;;;;;;;;;17.60;51.00;;;;;;462927;256;1163;-46
2021/05/14 11:24:49;;;;;;;;;;;17.50;51.10;;;;;;462937;256;1107;-46
2021/05/14 11:26:49;;;;;;;;;;;17.60;51.10;;;;;;462747;256;2008;-46
2021/05/14 11:28:51;;;;;;;;;;;17.70;50.80;;;;;;462760;255;1301;-46
2021/05/14 11:30:52;;;;;;;;;;;18.10;49.70;;;;;;462746;255;1183;-46
2021/05/14 11:32:54;;;;;;;;;;;18.50;48.70;;;;;;462747;257;1111;-46
2021/05/14 11:34:55;;;;;;;;;;;18.80;48.10;;;;;;462828;256;1383;-46
2021/05/14 11:36:56;;;;;;;;;;;18.90;47.60;;;;;;462646;256;1274;-46
2021/05/14 11:38:57;;;;;;;;;;;19.10;47.30;;;;;;462843;256;2202;-46
2021/05/14 11:40:59;;;;;;;;;;;19.20;47.00;;;;;;462782;256;1272;-46
2021/05/14 11:43:00;;;;;;;;;;;19.20;46.70;;;;;;462809;255;1243;-46
2021/05/14 11:45:01;;;;;;;;;;;19.30;46.50;;;;;;462927;257;1090;-46
2021/05/14 11:47:03;;;;;;;;;;;19.40;46.40;;;;;;462684;255;1242;-46
2021/05/14 11:49:04;;;;;;;;;;;19.40;46.30;;;;;;462770;256;1090;-46
2021/05/14 11:51:05;;;;;;;;;;;19.50;46.20;;;;;;462645;256;1514;-46
2021/05/14 11:53:07;;;;;;;;;;;19.50;46.10;;;;;;462681;255;1104;-46
2021/05/14 11:55:08;;;;;;;;;;;19.60;46.00;;;;;;462692;256;1153;-46
2021/05/14 11:57:09;;;;;;;;;;;19.60;45.90;;;;;;462670;256;1223;-46
2021/05/14 11:59:10;;;;;;;;;;;19.70;45.80;;;;;;462632;256;2203;-46
2021/05/14 12:01:12;;;;;;;;;;;19.70;45.60;;;;;;462654;256;1312;-46